Time;durP1;ratioP1;P1;durP2;ratioP2;P2;SDS_P1;SDS_P2;PMS_P1;PMS_P2;Temp;Humidity;BMP_temperature;BMP_pressure;BME280_temperature;BME280_humidity;BME280_pressure;Samples;Min_cycle;Max_cycle;Signal;HPM_P1;HPM_P2
2024/04/26 00:00:27;;;;;;;8.65;7.88;;;6.20;99.90;;;;;;5449129;26;19994;-73
2024/04/26 00:02:54;;;;;;;12.73;11.38;;;6.20;99.90;;;;;;5451609;26;20006;-73
2024/04/26 00:05:21;;;;;;;14.07;10.70;;;6.20;99.90;;;;;;5450987;26;20043;-73
2024/04/26 00:07:48;;;;;;;10.35;9.30;;;6.20;99.90;;;;;;5450226;26;20014;-73
2024/04/26 00:10:15;;;;;;;8.68;7.75;;;6.20;99.90;;;;;;5455747;26;19998;-73
2024/04/26 00:12:44;;;;;;;15.75;13.00;;;6.20;99.90;;;;;;5455748;26;20002;-73
2024/04/26 00:15:11;;;;;;;15.32;13.68;;;6.30;99.90;;;;;;5482341;26;20053;-73
2024/04/26 00:17:38;;;;;;;12.25;11.18;;;6.30;99.90;;;;;;5540723;25;20027;-73
2024/04/26 00:20:05;;;;;;;19.02;13.45;;;6.30;99.90;;;;;;5487177;26;20006;-73
2024/04/26 00:22:33;;;;;;;12.45;10.45;;;6.30;99.90;;;;;;5515735;26;20006;-73
2024/04/26 00:25:00;;;;;;;14.73;13.30;;;6.30;99.90;;;;;;5484622;26;20005;-73
2024/04/26 00:27:27;;;;;;;15.98;12.77;;;6.20;99.90;;;;;;5485104;26;20017;-73
2024/04/26 00:29:54;;;;;;;15.40;13.57;;;6.20;99.90;;;;;;5487112;26;19998;-73
2024/04/26 00:32:21;;;;;;;8.98;8.15;;;6.20;99.90;;;;;;5454908;26;20439;-73
2024/04/26 00:34:49;;;;;;;16.85;12.93;;;6.20;99.90;;;;;;5487099;26;20345;-73
2024/04/26 00:37:16;;;;;;;10.38;9.38;;;6.20;99.90;;;;;;5485153;26;20458;-73
2024/04/26 00:39:43;;;;;;;12.07;10.75;;;6.20;99.90;;;;;;5517112;26;20068;-73
2024/04/26 00:42:10;;;;;;;16.95;11.18;;;6.20;99.90;;;;;;5489300;26;19994;-73
2024/04/26 00:44:37;;;;;;;15.65;12.43;;;6.20;99.90;;;;;;5490647;26;20014;-73
2024/04/26 00:47:04;;;;;;;15.43;13.93;;;6.20;99.90;;;;;;5490910;26;19998;-73
2024/04/26 00:49:31;;;;;;;12.40;10.73;;;6.20;99.90;;;;;;5490826;26;19994;-73
2024/04/26 00:51:58;;;;;;;10.88;9.70;;;6.10;99.90;;;;;;5490943;26;20005;-73
2024/04/26 00:54:26;;;;;;;12.20;11.00;;;6.10;99.90;;;;;;5490331;26;20069;-73
2024/04/26 00:56:59;;;;;;;20.55;15.57;;;6.10;99.90;;;;;;5519482;26;20051;-73
2024/04/26 00:59:28;;;;;;;8.60;7.65;;;6.10;99.90;;;;;;5490207;26;20343;-73
2024/04/26 01:01:56;;;;;;;11.05;10.07;;;6.10;99.90;;;;;;5490731;26;20455;-73
2024/04/26 01:04:23;;;;;;;12.02;9.63;;;6.10;99.90;;;;;;5490461;26;20043;-73
2024/04/26 01:06:50;;;;;;;14.00;12.68;;;6.10;99.90;;;;;;5488573;26;20342;-73
2024/04/26 01:09:19;;;;;;;17.50;15.82;;;6.10;99.90;;;;;;5490435;26;20006;-73
2024/04/26 01:11:46;;;;;;;13.52;9.77;;;6.10;99.90;;;;;;5488339;26;20039;-73
2024/04/26 01:14:13;;;;;;;16.30;12.93;;;6.00;99.90;;;;;;5490490;26;19998;-73
2024/04/26 01:16:40;;;;;;;16.45;11.93;;;6.10;99.90;;;;;;5518974;26;20388;-73
2024/04/26 01:19:13;;;;;;;15.23;13.73;;;6.10;99.90;;;;;;5488770;26;19994;-73
2024/04/26 01:21:41;;;;;;;11.05;9.65;;;6.10;99.90;;;;;;5490334;26;20440;-73
2024/04/26 01:24:09;;;;;;;10.45;8.98;;;6.10;99.90;;;;;;5519805;26;20062;-73
2024/04/26 01:26:36;;;;;;;12.60;10.63;;;6.10;99.90;;;;;;5488507;26;20002;-73
2024/04/26 01:29:03;;;;;;;13.93;11.18;;;6.10;99.90;;;;;;5488908;26;20013;-73
2024/04/26 01:31:30;;;;;;;17.67;13.73;;;6.10;99.90;;;;;;5489850;26;20009;-73
2024/04/26 01:33:57;;;;;;;12.48;11.27;;;6.10;99.90;;;;;;5490222;26;20013;-73
2024/04/26 01:36:24;;;;;;;14.45;13.00;;;6.10;99.90;;;;;;5487899;26;20013;-73
2024/04/26 01:38:51;;;;;;;15.23;13.63;;;6.10;99.90;;;;;;5489779;26;19998;-73
2024/04/26 01:41:18;;;;;;;16.67;14.77;;;6.10;99.90;;;;;;5489952;26;20094;-74
2024/04/26 01:43:45;;;;;;;16.92;13.27;;;6.20;99.90;;;;;;5487818;26;20070;-73
2024/04/26 01:46:12;;;;;;;14.88;13.57;;;6.20;99.90;;;;;;5489948;26;20030;-73
2024/04/26 01:48:39;;;;;;;9.48;7.50;;;6.20;99.90;;;;;;5489514;26;20026;-73
2024/04/26 01:51:07;;;;;;;15.57;11.15;;;6.20;99.90;;;;;;5488176;26;19998;-73
2024/04/26 01:53:34;;;;;;;14.52;12.95;;;6.20;99.90;;;;;;5487822;26;19994;-73
2024/04/26 01:56:01;;;;;;;20.02;18.10;;;6.20;99.90;;;;;;5489948;26;19994;-73
2024/04/26 01:58:28;;;;;;;13.27;11.98;;;6.30;99.90;;;;;;5488163;26;20460;-73
2024/04/26 02:00:55;;;;;;;11.63;10.35;;;6.20;99.90;;;;;;5489710;26;19998;-73
2024/04/26 02:03:22;;;;;;;16.38;11.13;;;6.20;99.90;;;;;;5490050;26;20022;-73
2024/04/26 02:05:49;;;;;;;11.93;10.95;;;6.20;99.90;;;;;;5487603;26;20005;-73
2024/04/26 02:08:16;;;;;;;13.95;12.23;;;6.20;99.90;;;;;;5489919;26;19995;-73
2024/04/26 02:10:43;;;;;;;12.70;11.02;;;6.20;99.90;;;;;;5489323;26;20332;-73
2024/04/26 02:13:11;;;;;;;16.92;12.48;;;6.20;99.90;;;;;;5487825;26;20006;-73
2024/04/26 02:15:38;;;;;;;13.63;11.55;;;6.20;99.90;;;;;;5517843;26;19998;-73
2024/04/26 02:18:05;;;;;;;15.15;12.63;;;6.20;99.90;;;;;;5489583;26;20076;-73
2024/04/26 02:20:32;;;;;;;15.50;12.50;;;6.20;99.90;;;;;;5518052;26;19998;-73
2024/04/26 02:22:59;;;;;;;13.18;10.90;;;6.10;99.90;;;;;;5487326;26;20002;-73
2024/04/26 02:25:26;;;;;;;17.63;14.35;;;6.10;99.90;;;;;;5487830;26;20016;-73
2024/04/26 02:27:53;;;;;;;11.10;10.05;;;6.10;99.90;;;;;;5487182;26;19998;-73
2024/04/26 02:30:20;;;;;;;7.75;6.80;;;6.10;99.90;;;;;;5489512;26;19998;-73
2024/04/26 02:32:47;;;;;;;9.52;7.72;;;6.00;99.90;;;;;;5487442;26;20372;-73
2024/04/26 02:35:14;;;;;;;13.68;11.68;;;6.00;99.90;;;;;;5487812;26;19994;-73
2024/04/26 02:37:42;;;;;;;13.65;10.95;;;6.00;99.90;;;;;;5487242;26;20491;-74
2024/04/26 02:40:09;;;;;;;12.02;9.50;;;6.00;99.90;;;;;;5489141;26;20073;-73
2024/04/26 02:42:36;;;;;;;12.20;9.35;;;6.00;99.90;;;;;;5489275;26;20070;-73
2024/04/26 02:45:03;;;;;;;12.88;11.40;;;6.00;99.90;;;;;;5487869;26;20074;-73
2024/04/26 02:47:31;;;;;;;11.20;10.13;;;6.00;99.90;;;;;;5487756;26;20006;-73
2024/04/26 02:49:58;;;;;;;18.75;15.10;;;6.00;99.90;;;;;;5486773;26;20017;-73
2024/04/26 02:52:25;;;;;;;12.93;8.65;;;6.00;99.90;;;;;;5488994;26;20026;-73
2024/04/26 02:54:52;;;;;;;10.15;7.80;;;6.00;99.90;;;;;;5486660;26;20074;-73
2024/04/26 02:57:19;;;;;;;14.57;12.73;;;6.00;99.90;;;;;;5488948;26;20458;-73
2024/04/26 02:59:47;;;;;;;12.27;9.18;;;6.00;99.90;;;;;;5488601;26;20009;-73
2024/04/26 03:02:17;;;;;;;10.48;9.38;;;6.00;99.90;;;;;;5457115;26;20079;-73
2024/04/26 03:04:45;;;;;;;15.38;12.25;;;6.00;99.90;;;;;;5420466;26;20018;-73
2024/04/26 03:07:15;;;;;;;11.50;10.27;;;6.00;99.90;;;;;;5451477;26;20015;-73
2024/04/26 03:09:44;;;;;;;19.25;13.30;;;6.00;99.90;;;;;;5451913;26;20011;-73
2024/04/26 03:12:11;;;;;;;9.82;7.63;;;5.90;99.90;;;;;;5452718;26;20356;-73
2024/04/26 03:14:38;;;;;;;12.02;10.35;;;6.10;99.90;;;;;;5450745;26;20006;-73
2024/04/26 03:17:06;;;;;;;9.82;8.38;;;5.90;99.90;;;;;;5450592;26;19995;-73
2024/04/26 03:19:33;;;;;;;12.88;10.77;;;5.80;99.90;;;;;;5452288;26;20013;-73
2024/04/26 03:22:00;;;;;;;18.25;10.38;;;5.80;99.90;;;;;;5420286;26;20097;-73
2024/04/26 03:24:27;;;;;;;12.48;11.02;;;5.80;99.90;;;;;;5450506;26;20444;-73
2024/04/26 03:26:54;;;;;;;10.23;8.55;;;5.80;99.90;;;;;;5420082;26;19999;-73
2024/04/26 03:29:21;;;;;;;13.27;11.95;;;5.80;99.90;;;;;;5451999;26;20034;-73
2024/04/26 03:31:48;;;;;;;17.23;11.13;;;5.80;99.90;;;;;;5450109;26;20017;-73
2024/04/26 03:34:15;;;;;;;15.93;13.60;;;5.70;99.90;;;;;;5450123;26;20003;-73
2024/04/26 03:36:42;;;;;;;19.40;13.80;;;5.80;99.90;;;;;;5450070;26;20043;-73
2024/04/26 03:39:09;;;;;;;9.60;8.70;;;5.70;99.90;;;;;;5420045;26;19999;-73
2024/04/26 03:41:37;;;;;;;7.40;6.75;;;5.70;99.90;;;;;;5449881;26;20405;-73
2024/04/26 03:44:04;;;;;;;10.35;8.88;;;5.70;99.90;;;;;;5451547;26;20002;-73
2024/04/26 03:46:31;;;;;;;11.55;9.70;;;5.70;99.90;;;;;;5449995;26;20010;-73
2024/04/26 03:48:58;;;;;;;17.75;13.80;;;5.80;99.90;;;;;;5451336;26;19998;-73
2024/04/26 03:51:25;;;;;;;14.38;12.38;;;5.80;99.90;;;;;;5451625;26;20318;-73
2024/04/26 03:53:52;;;;;;;15.02;13.43;;;5.80;99.90;;;;;;5451420;26;20044;-73
2024/04/26 03:56:19;;;;;;;14.52;12.88;;;5.80;99.90;;;;;;5450168;26;19995;-73
2024/04/26 03:58:46;;;;;;;16.35;13.27;;;5.80;99.90;;;;;;5419985;26;20398;-73
2024/04/26 04:01:13;;;;;;;11.45;10.27;;;5.80;99.90;;;;;;5449785;26;20436;-73
2024/04/26 04:03:41;;;;;;;13.85;11.02;;;5.80;99.90;;;;;;5450097;26;19995;-73
2024/04/26 04:06:08;;;;;;;15.30;11.05;;;5.80;99.90;;;;;;5449502;26;20017;-73
2024/04/26 04:08:35;;;;;;;13.68;9.90;;;5.70;99.90;;;;;;5449355;26;19999;-73
2024/04/26 04:11:02;;;;;;;12.75;11.40;;;5.70;99.90;;;;;;5451056;26;20011;-73
2024/04/26 04:13:29;;;;;;;14.07;12.23;;;5.80;99.90;;;;;;5449388;26;19998;-73
2024/04/26 04:15:56;;;;;;;13.25;10.93;;;5.80;99.90;;;;;;5452374;26;20011;-73
2024/04/26 04:18:26;;;;;;;17.40;11.73;;;5.80;99.90;;;;;;5454937;26;19999;-73
2024/04/26 04:20:53;;;;;;;9.25;8.38;;;5.90;99.90;;;;;;5452857;26;20007;-73
2024/04/26 04:23:20;;;;;;;16.25;14.60;;;5.90;99.90;;;;;;5454679;26;20039;-73
2024/04/26 04:25:49;;;;;;;15.23;12.48;;;5.90;99.90;;;;;;5452791;26;20014;-73
2024/04/26 04:28:16;;;;;;;14.13;11.10;;;6.00;99.90;;;;;;5454463;26;20006;-73
2024/04/26 04:30:43;;;;;;;12.93;9.38;;;6.00;99.90;;;;;;5454979;26;19999;-73
2024/04/26 04:33:12;;;;;;;11.55;7.93;;;6.00;99.90;;;;;;5452516;26;20002;-73
2024/04/26 04:35:39;;;;;;;10.77;8.55;;;6.00;99.90;;;;;;5454590;26;20021;-73
2024/04/26 04:38:07;;;;;;;15.73;10.90;;;6.10;99.90;;;;;;5452446;26;20424;-73
2024/04/26 04:40:34;;;;;;;15.93;10.27;;;6.10;99.90;;;;;;5454519;26;19995;-73
2024/04/26 04:43:01;;;;;;;16.40;11.48;;;6.10;99.90;;;;;;5454172;26;19999;-73
2024/04/26 04:45:29;;;;;;;14.10;11.02;;;6.10;99.90;;;;;;5454361;26;19999;-73
2024/04/26 04:47:56;;;;;;;17.92;16.33;;;6.20;99.90;;;;;;5422680;26;20444;-73
2024/04/26 04:50:23;;;;;;;14.15;11.38;;;6.10;99.90;;;;;;5454208;26;19998;-73
2024/04/26 04:52:50;;;;;;;13.13;9.93;;;6.10;99.90;;;;;;5454353;26;19998;-73
2024/04/26 04:55:17;;;;;;;11.52;7.93;;;6.10;99.90;;;;;;5452154;26;20018;-73
2024/04/26 04:57:44;;;;;;;13.10;9.85;;;6.00;99.90;;;;;;5454234;26;20010;-73
2024/04/26 05:00:11;;;;;;;13.65;11.20;;;5.90;99.90;;;;;;5450815;26;20517;-73
2024/04/26 05:02:38;;;;;;;5.85;5.38;;;5.80;99.90;;;;;;5455819;26;20038;-73
2024/04/26 05:05:06;;;;;;;10.07;9.07;;;5.70;99.90;;;;;;5453109;26;19999;-73
2024/04/26 05:07:33;;;;;;;11.88;9.80;;;5.70;99.90;;;;;;5453480;26;19995;-73
2024/04/26 05:10:00;;;;;;;8.50;5.22;;;5.80;99.90;;;;;;5452072;26;20011;-73
2024/04/26 05:12:27;;;;;;;8.15;7.20;;;5.80;99.90;;;;;;5454143;26;19999;-73
2024/04/26 05:14:54;;;;;;;7.63;6.38;;;5.70;99.90;;;;;;5454203;26;20476;-73
2024/04/26 05:17:22;;;;;;;8.85;6.68;;;5.70;99.90;;;;;;5453666;26;19995;-73
2024/04/26 05:19:49;;;;;;;12.30;9.50;;;5.60;99.90;;;;;;5454227;26;20003;-73
2024/04/26 05:22:16;;;;;;;6.60;6.00;;;5.60;99.90;;;;;;5422107;26;20006;-72
2024/04/26 05:24:43;;;;;;;6.25;5.68;;;5.60;99.90;;;;;;5453846;26;19999;-73
2024/04/26 05:27:15;;;;;;;8.00;7.15;;;5.50;99.90;;;;;;5453246;26;20394;-73
2024/04/26 05:29:44;;;;;;;10.80;9.70;;;5.50;99.90;;;;;;5453836;26;19999;-73
2024/04/26 05:32:12;;;;;;;11.75;9.35;;;5.50;99.90;;;;;;5453379;26;20075;-73
2024/04/26 05:34:40;;;;;;;12.52;9.02;;;5.60;99.90;;;;;;5453787;26;20010;-73
2024/04/26 05:37:12;;;;;;;14.77;10.80;;;5.90;99.90;;;;;;5451650;26;20074;-73
2024/04/26 05:39:39;;;;;;;10.85;9.85;;;6.10;99.90;;;;;;5453934;26;20003;-73
2024/04/26 05:42:06;;;;;;;11.75;8.15;;;6.20;99.90;;;;;;5451632;26;20014;-73
2024/04/26 05:44:33;;;;;;;10.52;9.50;;;6.30;99.90;;;;;;5451464;26;20071;-73
2024/04/26 05:47:01;;;;;;;7.28;6.65;;;6.40;99.90;;;;;;5421985;26;20006;-72
2024/04/26 05:49:28;;;;;;;11.68;10.35;;;6.40;99.90;;;;;;5453338;26;20015;-73
2024/04/26 05:51:55;;;;;;;7.50;5.88;;;6.50;99.90;;;;;;5421977;26;19994;-73
2024/04/26 05:54:22;;;;;;;15.75;14.20;;;6.70;99.90;;;;;;5421809;26;19995;-72
2024/04/26 05:56:49;;;;;;;14.93;13.30;;;6.90;99.90;;;;;;5481777;26;19994;-72
2024/04/26 05:59:17;;;;;;;9.32;8.43;;;7.10;99.90;;;;;;5451130;26;20023;-73
2024/04/26 06:01:44;;;;;;;10.95;9.82;;;7.40;99.90;;;;;;5453026;26;19999;-72
2024/04/26 06:04:13;;;;;;;12.40;10.60;;;7.80;99.90;;;;;;5452753;26;20072;-73
2024/04/26 06:06:45;;;;;;;13.32;11.93;;;7.90;99.90;;;;;;5451275;26;19999;-73
2024/04/26 06:09:13;;;;;;;13.32;11.82;;;7.90;99.90;;;;;;5453875;26;20417;-72
2024/04/26 06:11:40;;;;;;;12.80;10.40;;;7.80;99.90;;;;;;5454547;26;20011;-73
2024/04/26 06:14:07;;;;;;;18.25;16.52;;;7.70;99.90;;;;;;5487908;26;20009;-73
2024/04/26 06:16:34;;;;;;;11.02;9.93;;;7.70;99.90;;;;;;5488470;26;20010;-72
2024/04/26 06:19:01;;;;;;;10.05;8.75;;;8.10;99.90;;;;;;5489082;26;19998;-73
2024/04/26 06:21:28;;;;;;;12.57;11.00;;;8.20;99.90;;;;;;5488554;26;20225;-73
2024/04/26 06:23:56;;;;;;;13.35;8.93;;;8.50;99.90;;;;;;5489006;26;20071;-72
2024/04/26 06:26:23;;;;;;;14.07;10.45;;;8.80;99.90;;;;;;5487087;26;20005;-72
2024/04/26 06:28:51;;;;;;;10.40;9.38;;;9.10;99.90;;;;;;5487698;26;19994;-72
2024/04/26 06:31:18;;;;;;;11.70;8.88;;;9.40;99.90;;;;;;5487111;26;20002;-72
2024/04/26 06:33:45;;;;;;;11.15;7.15;;;9.60;99.90;;;;;;5489209;26;20013;-73
2024/04/26 06:36:12;;;;;;;9.57;8.40;;;10.20;99.90;;;;;;5488930;26;19994;-73
2024/04/26 06:38:39;;;;;;;7.40;6.65;;;10.20;99.90;;;;;;5486349;26;20006;-73
2024/04/26 06:41:06;;;;;;;9.13;7.22;;;10.20;99.90;;;;;;5486940;26;20009;-73
2024/04/26 06:43:33;;;;;;;7.30;6.60;;;10.00;99.90;;;;;;5488383;26;19998;-73
2024/04/26 06:46:01;;;;;;;11.35;7.85;;;9.70;99.90;;;;;;5488814;26;19998;-73
2024/04/26 06:48:28;;;;;;;16.98;10.82;;;9.60;99.90;;;;;;5517241;26;20435;-73
2024/04/26 06:50:55;;;;;;;6.45;5.32;;;9.60;99.90;;;;;;5488789;26;20020;-72
2024/04/26 06:53:22;;;;;;;7.00;6.30;;;9.50;99.90;;;;;;5486470;26;20002;-73
2024/04/26 06:55:49;;;;;;;5.70;5.13;;;9.60;99.90;;;;;;5488558;26;20010;-73
2024/04/26 06:58:16;;;;;;;8.02;7.25;;;10.00;99.90;;;;;;5488035;26;19998;-73
2024/04/26 07:00:43;;;;;;;8.57;7.68;;;10.50;99.90;;;;;;5488535;26;20010;-73
2024/04/26 07:03:11;;;;;;;8.85;6.40;;;10.80;99.90;;;;;;5488471;26;20038;-73
2024/04/26 07:05:38;;;;;;;7.60;6.88;;;10.80;99.90;;;;;;5488620;26;19998;-73
2024/04/26 07:08:06;;;;;;;7.25;5.65;;;10.60;99.90;;;;;;5486848;26;20002;-73
2024/04/26 07:10:33;;;;;;;7.38;4.35;;;10.20;99.90;;;;;;5517224;26;19998;-73
2024/04/26 07:13:00;;;;;;;6.68;4.85;;;10.30;99.90;;;;;;5488462;26;20368;-73
2024/04/26 07:15:27;;;;;;;7.25;6.38;;;10.70;99.90;;;;;;5517049;26;20323;-73
2024/04/26 07:17:54;;;;;;;6.93;6.35;;;11.20;99.90;;;;;;5517261;26;19994;-73
2024/04/26 07:20:22;;;;;;;7.75;5.50;;;11.40;99.90;;;;;;5516989;26;20022;-74
2024/04/26 07:22:49;;;;;;;7.22;6.60;;;11.80;99.90;;;;;;5488035;26;19998;-74
2024/04/26 07:25:23;;;;;;;8.00;7.15;;;12.20;99.90;;;;;;5485858;26;20006;-74
2024/04/26 07:27:51;;;;;;;6.97;5.55;;;12.60;99.90;;;;;;5516402;26;20008;-74
2024/04/26 07:30:18;;;;;;;8.55;7.75;;;12.90;99.90;;;;;;5488073;26;19998;-75
2024/04/26 07:32:45;;;;;;;5.85;5.35;;;13.00;99.50;;;;;;5516840;26;20017;-75
2024/04/26 07:35:13;;;;;;;6.15;5.20;;;13.00;98.90;;;;;;5486372;26;20466;-75
2024/04/26 07:37:40;;;;;;;5.10;4.70;;;13.10;99.90;;;;;;5516435;26;20069;-75
2024/04/26 07:40:08;;;;;;;4.35;3.95;;;13.20;99.90;;;;;;5488155;26;20010;-75
2024/04/26 07:42:35;;;;;;;5.07;4.63;;;13.20;98.40;;;;;;5487682;26;20070;-75
2024/04/26 07:45:02;;;;;;;4.60;4.18;;;13.10;97.80;;;;;;5488089;26;20468;-75
2024/04/26 07:47:29;;;;;;;5.25;4.05;;;13.50;97.10;;;;;;5487718;26;19994;-76
2024/04/26 07:49:57;;;;;;;6.03;5.53;;;14.00;97.60;;;;;;5489340;26;19995;-76
2024/04/26 07:52:24;;;;;;;4.63;4.20;;;14.50;98.40;;;;;;5489433;26;20014;-76
2024/04/26 07:54:54;;;;;;;7.72;5.03;;;14.50;95.10;;;;;;5491298;26;20111;-75
2024/04/26 07:57:23;;;;;;;9.68;6.03;;;14.20;96.30;;;;;;5491755;26;20066;-75
2024/04/26 07:59:50;;;;;;;4.85;3.03;;;13.70;94.50;;;;;;5491702;26;20383;-75
2024/04/26 08:02:17;;;;;;;4.80;4.35;;;13.10;95.20;;;;;;5519997;26;20028;-74
2024/04/26 08:04:44;;;;;;;5.15;3.55;;;12.70;95.30;;;;;;5519856;26;19998;-75
2024/04/26 08:07:11;;;;;;;4.47;3.47;;;12.70;96.50;;;;;;5489506;26;20006;-74
2024/04/26 08:09:38;;;;;;;4.85;4.13;;;12.50;95.50;;;;;;5490861;26;20503;-75
2024/04/26 08:12:05;;;;;;;6.05;4.35;;;12.10;94.40;;;;;;5489278;26;20006;-73
2024/04/26 08:14:33;;;;;;;5.03;4.55;;;11.60;95.40;;;;;;5491146;26;20039;-74
2024/04/26 08:17:00;;;;;;;3.90;3.50;;;11.20;96.10;;;;;;5489117;26;19998;-74
2024/04/26 08:19:27;;;;;;;9.52;5.60;;;10.90;97.20;;;;;;5488796;26;20006;-74
2024/04/26 08:21:56;;;;;;;5.03;4.47;;;10.80;97.60;;;;;;5489219;26;20026;-74
2024/04/26 08:24:23;;;;;;;6.05;5.55;;;10.70;98.00;;;;;;5491281;26;19994;-74
2024/04/26 08:26:50;;;;;;;6.13;3.80;;;10.50;97.80;;;;;;5489158;26;20305;-74
2024/04/26 08:29:17;;;;;;;5.78;5.25;;;10.30;98.30;;;;;;5491120;26;20026;-74
2024/04/26 08:31:45;;;;;;;8.80;3.17;;;10.30;98.80;;;;;;5491135;26;20359;-74
2024/04/26 08:34:12;;;;;;;5.22;4.72;;;10.40;99.90;;;;;;5489364;26;19994;-74
2024/04/26 08:36:40;;;;;;;5.88;5.30;;;10.60;99.80;;;;;;5490714;26;20000;-74
2024/04/26 08:39:08;;;;;;;8.50;7.18;;;10.60;98.80;;;;;;5491158;26;20026;-74
2024/04/26 08:41:35;;;;;;;7.55;6.68;;;10.80;98.00;;;;;;5488495;26;19998;-74
2024/04/26 08:44:03;;;;;;;5.78;4.20;;;10.90;98.00;;;;;;5490530;26;20051;-74
2024/04/26 08:46:32;;;;;;;7.07;6.45;;;11.00;98.80;;;;;;5488859;26;20006;-73
2024/04/26 08:49:09;;;;;;;5.75;4.85;;;11.10;97.00;;;;;;5490352;26;20013;-74
2024/04/26 09:02:07;;;;;;;3.38;2.78;;;12.00;96.90;;;;;;5470539;26;20427;-75
2024/04/26 09:04:36;;;;;;;4.50;4.03;;;11.20;97.20;;;;;;5469177;26;20030;-75
2024/04/26 09:07:03;;;;;;;3.80;2.55;;;10.50;99.30;;;;;;5468556;26;20023;-75
2024/04/26 09:09:30;;;;;;;3.88;2.17;;;10.00;99.80;;;;;;5468892;26;20010;-75
2024/04/26 09:11:59;;;;;;;3.28;2.63;;;9.60;99.90;;;;;;5470269;26;19999;-75
2024/04/26 09:14:27;;;;;;;2.60;1.98;;;9.30;99.90;;;;;;5470565;26;20002;-75
2024/04/26 09:16:54;;;;;;;1.95;1.70;;;9.10;99.90;;;;;;5408810;26;19999;-75
2024/04/26 09:19:21;;;;;;;2.47;1.95;;;8.80;99.90;;;;;;5470749;26;19995;-75
2024/04/26 09:21:48;;;;;;;2.50;1.63;;;8.70;99.90;;;;;;5438550;26;20470;-75
2024/04/26 09:24:15;;;;;;;2.28;1.48;;;8.70;99.90;;;;;;5468695;26;20006;-74
2024/04/26 09:26:43;;;;;;;4.03;1.35;;;8.60;99.90;;;;;;5468378;26;20006;-74
2024/04/26 09:29:13;;;;;;;2.45;1.95;;;8.50;99.90;;;;;;5468548;26;20005;-74
2024/04/26 09:31:42;;;;;;;1.35;1.17;;;8.70;99.90;;;;;;5469977;26;20612;-75
2024/04/26 09:34:11;;;;;;;1.73;1.63;;;9.20;99.90;;;;;;5468831;26;20006;-74
2024/04/26 09:36:39;;;;;;;1.17;1.08;;;10.20;99.90;;;;;;5467934;26;19998;-74
2024/04/26 09:39:07;;;;;;;1.10;0.90;;;11.10;99.90;;;;;;5470060;26;20031;-73
2024/04/26 09:41:34;;;;;;;1.85;0.65;;;12.00;99.90;;;;;;5469928;26;20006;-74
2024/04/26 09:44:02;;;;;;;1.23;1.15;;;12.70;99.90;;;;;;5469692;26;20439;-72
2024/04/26 09:46:29;;;;;;;2.28;1.25;;;13.30;98.40;;;;;;5469858;26;20376;-72
2024/04/26 09:48:56;;;;;;;1.20;1.10;;;13.60;95.80;;;;;;5467731;26;19999;-74
2024/04/26 09:51:25;;;;;;;1.42;1.30;;;13.30;95.20;;;;;;5470094;26;20466;-74
2024/04/26 09:53:58;;;;;;;1.40;1.30;;;13.40;97.60;;;;;;5469807;26;20010;-74
2024/04/26 09:56:26;;;;;;;1.52;1.17;;;13.70;96.30;;;;;;5467887;26;19999;-74
2024/04/26 09:58:53;;;;;;;1.88;1.33;;;14.30;96.40;;;;;;5468312;26;20005;-74
2024/04/26 10:01:21;;;;;;;1.33;1.23;;;14.90;94.90;;;;;;5469950;26;20431;-74
2024/04/26 10:03:48;;;;;;;0.88;0.80;;;15.80;93.50;;;;;;5467943;26;19994;-74
2024/04/26 10:06:15;;;;;;;1.70;1.60;;;16.40;93.70;;;;;;5469902;26;19999;-74
2024/04/26 10:08:43;;;;;;;2.35;1.40;;;17.00;89.20;;;;;;5467581;26;20014;-73
2024/04/26 10:11:12;;;;;;;1.63;1.13;;;17.10;86.90;;;;;;5463984;26;20455;-73
2024/04/26 10:13:50;;;;;;;1.00;0.90;;;16.30;86.90;;;;;;5454279;26;19995;-71
2024/04/26 10:16:37;;;;;;;9.88;1.95;;;15.70;87.30;;;;;;5454106;26;20010;-72
2024/04/26 10:19:17;;;;;;;0.70;0.60;;;15.00;90.00;;;;;;5453903;26;20014;-73
2024/04/26 10:21:45;;;;;;;1.85;1.10;;;14.90;90.70;;;;;;5453751;26;20420;-73
2024/04/26 10:24:12;;;;;;;0.82;0.45;;;15.00;90.30;;;;;;5454043;26;20013;-74
2024/04/26 10:26:40;;;;;;;0.98;0.73;;;14.90;90.30;;;;;;5454158;26;20419;-74
2024/04/26 10:29:11;;;;;;;1.13;0.63;;;14.80;90.70;;;;;;5451778;26;19999;-74
2024/04/26 10:31:39;;;;;;;0.32;0.32;;;14.70;90.30;;;;;;5453812;26;19999;-74
2024/04/26 10:34:18;;;;;;;1.00;0.82;;;14.30;89.50;;;;;;5453567;26;20397;-74
2024/04/26 10:36:47;;;;;;;1.58;1.05;;;14.10;91.00;;;;;;5451895;26;20040;-75
2024/04/26 10:39:24;;;;;;;0.60;0.60;;;13.90;91.00;;;;;;5454042;26;20002;-74
2024/04/26 10:41:51;;;;;;;0.95;0.55;;;13.60;90.10;;;;;;5451995;26;19995;-74
2024/04/26 10:44:19;;;;;;;1.00;0.90;;;13.30;90.80;;;;;;5453695;26;20005;-74
2024/04/26 10:46:46;;;;;;;0.70;0.70;;;12.90;90.80;;;;;;5454036;26;19999;-74
2024/04/26 10:49:13;;;;;;;0.68;0.52;;;12.70;91.70;;;;;;5452320;26;19999;-75
2024/04/26 10:51:40;;;;;;;1.02;0.40;;;12.80;92.10;;;;;;5453627;26;20009;-74
2024/04/26 10:54:07;;;;;;;0.52;0.52;;;13.10;90.60;;;;;;5451728;26;20009;-75
2024/04/26 10:56:41;;;;;;;1.02;0.82;;;13.70;90.00;;;;;;5451707;26;20014;-75
2024/04/26 10:59:19;;;;;;;0.77;0.75;;;14.80;90.50;;;;;;5451523;26;19999;-75
2024/04/26 11:01:53;;;;;;;2.00;0.52;;;16.00;87.30;;;;;;5421847;26;20400;-75
2024/04/26 11:04:20;;;;;;;1.00;0.80;;;17.10;88.00;;;;;;5453391;26;20431;-73
2024/04/26 11:06:49;;;;;;;0.73;0.73;;;17.80;82.90;;;;;;5451440;26;19999;-73
2024/04/26 11:09:18;;;;;;;2.05;0.80;;;17.80;81.40;;;;;;5453275;26;20075;-73
2024/04/26 11:11:52;;;;;;;1.73;0.47;;;17.10;79.40;;;;;;5451660;26;20014;-75
2024/04/26 11:14:29;;;;;;;2.65;0.85;;;16.20;78.90;;;;;;5453147;26;20069;-75
2024/04/26 11:16:56;;;;;;;1.60;1.02;;;15.30;81.60;;;;;;5453336;26;19995;-75
2024/04/26 11:19:30;;;;;;;0.50;0.50;;;14.70;83.00;;;;;;5451607;26;20068;-75
2024/04/26 11:21:57;;;;;;;1.10;0.90;;;14.20;83.50;;;;;;5451275;26;20424;-75
2024/04/26 11:24:24;;;;;;;1.02;1.02;;;14.10;85.30;;;;;;5450169;26;20010;-75
2024/04/26 11:26:52;;;;;;;0.65;0.65;;;14.70;85.30;;;;;;5453068;26;19995;-75
2024/04/26 11:29:20;;;;;;;0.73;0.60;;;14.90;81.10;;;;;;5451453;26;19999;-75
2024/04/26 11:31:47;;;;;;;2.05;1.10;;;14.90;80.80;;;;;;5451464;26;20010;-75
2024/04/26 11:34:15;;;;;;;0.30;0.30;;;14.60;80.90;;;;;;5450893;26;20014;-75
2024/04/26 11:36:43;;;;;;;0.50;0.50;;;14.30;81.10;;;;;;5451102;26;20071;-75
2024/04/26 11:39:11;;;;;;;1.00;0.63;;;14.60;80.50;;;;;;5452522;26;20103;-75
2024/04/26 11:41:38;;;;;;;1.20;1.00;;;15.30;80.30;;;;;;5452611;26;20023;-75
2024/04/26 11:44:05;;;;;;;1.48;0.73;;;16.20;75.70;;;;;;5450739;26;19998;-75
2024/04/26 11:46:32;;;;;;;1.30;0.63;;;17.00;74.40;;;;;;5452720;26;19999;-75
2024/04/26 11:48:59;;;;;;;0.70;0.57;;;17.40;71.90;;;;;;5421080;26;20015;-75
2024/04/26 11:51:26;;;;;;;0.57;0.43;;;17.20;69.30;;;;;;5452542;26;20039;-75
2024/04/26 11:53:57;;;;;;;1.15;0.40;;;16.70;69.70;;;;;;5450522;26;20346;-73
2024/04/26 11:56:28;;;;;;;0.70;0.70;;;16.20;74.10;;;;;;5425409;26;20427;-73
2024/04/26 11:58:56;;;;;;;0.20;0.20;;;15.90;75.60;;;;;;5450771;26;20389;-74
2024/04/26 12:01:23;;;;;;;1.05;0.70;;;15.70;75.50;;;;;;5450216;26;20017;-73
2024/04/26 12:03:50;;;;;;;0.85;0.47;;;15.70;76.80;;;;;;5481135;26;20009;-74
2024/04/26 12:06:17;;;;;;;0.43;0.43;;;15.60;76.40;;;;;;5450977;26;19999;-73
2024/04/26 12:08:45;;;;;;;0.47;0.47;;;15.80;75.70;;;;;;5450134;26;20451;-74
2024/04/26 12:11:16;;;;;;;2.05;0.55;;;15.80;75.60;;;;;;5452080;26;20006;-74
2024/04/26 12:13:45;;;;;;;0.35;0.35;;;15.70;73.40;;;;;;5450544;26;19999;-74
2024/04/26 12:16:13;;;;;;;0.85;0.85;;;15.70;73.00;;;;;;5420829;26;19998;-73
2024/04/26 12:18:40;;;;;;;0.70;0.50;;;15.40;73.90;;;;;;5420636;26;20396;-74
2024/04/26 12:21:20;;;;;;;0.45;0.45;;;15.00;74.00;;;;;;5420376;26;20459;-74
2024/04/26 12:23:47;;;;;;;1.02;0.85;;;15.10;74.90;;;;;;5452506;26;20014;-74
2024/04/26 12:26:22;;;;;;;0.50;0.50;;;15.40;74.20;;;;;;5450057;26;20365;-74
2024/04/26 12:28:51;;;;;;;0.47;0.30;;;15.80;73.20;;;;;;5452176;26;20003;-74
2024/04/26 12:31:19;;;;;;;1.00;0.20;;;15.70;73.00;;;;;;5451718;26;20400;-74
2024/04/26 12:33:47;;;;;;;0.90;0.73;;;15.70;72.80;;;;;;5450000;26;20353;-74
2024/04/26 12:36:15;;;;;;;0.75;0.75;;;15.80;73.10;;;;;;5451937;26;20007;-74
2024/04/26 12:38:42;;;;;;;0.40;0.38;;;15.80;71.10;;;;;;5452301;26;20035;-74
2024/04/26 12:41:10;;;;;;;1.75;0.70;;;15.60;71.70;;;;;;5449892;26;19994;-74
2024/04/26 12:43:39;;;;;;;0.45;0.35;;;15.50;73.20;;;;;;5450330;26;20435;-74
2024/04/26 12:46:06;;;;;;;1.95;0.70;;;15.40;73.30;;;;;;5420756;26;19994;-74
2024/04/26 12:48:35;;;;;;;0.55;0.50;;;15.80;72.10;;;;;;5452088;26;19995;-74
2024/04/26 12:51:03;;;;;;;0.63;0.40;;;16.30;72.50;;;;;;5452065;26;19995;-74
2024/04/26 12:53:30;;;;;;;0.70;0.70;;;16.40;72.90;;;;;;5449771;26;20031;-74
2024/04/26 12:55:57;;;;;;;0.63;0.63;;;16.20;71.80;;;;;;5451570;26;20011;-74
2024/04/26 12:58:24;;;;;;;0.30;0.30;;;15.90;72.10;;;;;;5449465;26;19999;-74